sensor_id;sensor_type;location;lat;lon;timestamp;P1;durP1;ratioP1;P2;durP2;ratioP2
52942;SDS011;38809;53.300;6.614;2022-11-13T00:02:10;18.60;;;13.50;;
52942;SDS011;38809;53.300;6.614;2022-11-13T00:04:36;16.37;;;13.23;;
52942;SDS011;38809;53.300;6.614;2022-11-13T00:07:02;20.73;;;13.43;;
52942;SDS011;38809;53.300;6.614;2022-11-13T00:09:27;17.83;;;13.73;;
52942;SDS011;38809;53.300;6.614;2022-11-13T00:11:53;20.70;;;14.87;;
52942;SDS011;38809;53.300;6.614;2022-11-13T00:14:19;18.50;;;14.40;;
52942;SDS011;38809;53.300;6.614;2022-11-13T00:16:45;16.50;;;13.45;;
52942;SDS011;38809;53.300;6.614;2022-11-13T00:19:10;18.83;;;13.90;;
52942;SDS011;38809;53.300;6.614;2022-11-13T00:21:36;18.70;;;15.07;;
52942;SDS011;38809;53.300;6.614;2022-11-13T00:24:02;18.93;;;14.60;;
52942;SDS011;38809;53.300;6.614;2022-11-13T00:26:28;18.80;;;14.60;;
52942;SDS011;38809;53.300;6.614;2022-11-13T00:28:58;14.07;;;11.65;;
52942;SDS011;38809;53.300;6.614;2022-11-13T00:31:26;17.65;;;14.23;;
52942;SDS011;38809;53.300;6.614;2022-11-13T00:33:52;17.13;;;13.88;;
52942;SDS011;38809;53.300;6.614;2022-11-13T00:36:19;17.52;;;14.55;;
52942;SDS011;38809;53.300;6.614;2022-11-13T00:38:47;18.63;;;14.38;;
52942;SDS011;38809;53.300;6.614;2022-11-13T00:41:13;17.50;;;14.10;;
52942;SDS011;38809;53.300;6.614;2022-11-13T00:43:38;16.53;;;12.90;;
52942;SDS011;38809;53.300;6.614;2022-11-13T00:46:05;16.98;;;13.95;;
52942;SDS011;38809;53.300;6.614;2022-11-13T00:48:31;16.75;;;12.98;;
52942;SDS011;38809;53.300;6.614;2022-11-13T00:50:57;15.70;;;13.23;;
52942;SDS011;38809;53.300;6.614;2022-11-13T00:53:23;17.80;;;13.27;;
52942;SDS011;38809;53.300;6.614;2022-11-13T00:55:49;17.98;;;13.48;;
52942;SDS011;38809;53.300;6.614;2022-11-13T00:58:15;18.55;;;14.13;;
52942;SDS011;38809;53.300;6.614;2022-11-13T01:00:41;16.83;;;12.55;;
52942;SDS011;38809;53.300;6.614;2022-11-13T01:03:08;16.30;;;12.63;;
52942;SDS011;38809;53.300;6.614;2022-11-13T01:05:35;17.15;;;13.13;;
52942;SDS011;38809;53.300;6.614;2022-11-13T01:08:05;15.48;;;12.65;;
52942;SDS011;38809;53.300;6.614;2022-11-13T01:10:31;18.63;;;13.50;;
52942;SDS011;38809;53.300;6.614;2022-11-13T01:12:58;17.65;;;13.23;;
52942;SDS011;38809;53.300;6.614;2022-11-13T01:15:24;16.75;;;13.10;;
52942;SDS011;38809;53.300;6.614;2022-11-13T01:17:50;15.95;;;12.65;;
52942;SDS011;38809;53.300;6.614;2022-11-13T01:20:16;15.98;;;13.60;;
52942;SDS011;38809;53.300;6.614;2022-11-13T01:22:41;15.63;;;12.57;;
52942;SDS011;38809;53.300;6.614;2022-11-13T01:25:07;17.80;;;13.83;;
52942;SDS011;38809;53.300;6.614;2022-11-13T01:27:36;15.27;;;12.63;;
52942;SDS011;38809;53.300;6.614;2022-11-13T01:30:03;16.25;;;12.52;;
52942;SDS011;38809;53.300;6.614;2022-11-13T01:34:55;14.27;;;11.63;;
52942;SDS011;38809;53.300;6.614;2022-11-13T01:37:20;16.48;;;12.55;;
52942;SDS011;38809;53.300;6.614;2022-11-13T01:39:46;18.03;;;13.47;;
52942;SDS011;38809;53.300;6.614;2022-11-13T01:42:12;17.23;;;13.83;;
52942;SDS011;38809;53.300;6.614;2022-11-13T01:44:56;15.57;;;13.43;;
52942;SDS011;38809;53.300;6.614;2022-11-13T01:47:26;18.98;;;13.93;;
52942;SDS011;38809;53.300;6.614;2022-11-13T01:49:55;19.67;;;14.93;;
52942;SDS011;38809;53.300;6.614;2022-11-13T01:52:28;18.15;;;14.50;;
52942;SDS011;38809;53.300;6.614;2022-11-13T01:55:05;16.65;;;14.23;;
52942;SDS011;38809;53.300;6.614;2022-11-13T01:57:35;17.45;;;13.95;;
52942;SDS011;38809;53.300;6.614;2022-11-13T02:00:03;19.00;;;14.07;;
52942;SDS011;38809;53.300;6.614;2022-11-13T02:02:31;19.67;;;15.00;;
52942;SDS011;38809;53.300;6.614;2022-11-13T02:04:57;18.58;;;13.68;;
52942;SDS011;38809;53.300;6.614;2022-11-13T02:07:23;17.77;;;14.43;;
52942;SDS011;38809;53.300;6.614;2022-11-13T02:12:21;18.40;;;14.20;;
52942;SDS011;38809;53.300;6.614;2022-11-13T02:14:53;17.67;;;14.07;;
52942;SDS011;38809;53.300;6.614;2022-11-13T02:17:21;19.60;;;15.00;;
52942;SDS011;38809;53.300;6.614;2022-11-13T02:19:54;17.73;;;15.38;;
52942;SDS011;38809;53.300;6.614;2022-11-13T02:25:04;18.25;;;14.77;;
52942;SDS011;38809;53.300;6.614;2022-11-13T02:27:45;17.83;;;14.23;;
52942;SDS011;38809;53.300;6.614;2022-11-13T02:30:16;18.55;;;13.90;;
52942;SDS011;38809;53.300;6.614;2022-11-13T02:32:49;18.23;;;14.70;;
52942;SDS011;38809;53.300;6.614;2022-11-13T02:35:23;19.80;;;14.90;;
52942;SDS011;38809;53.300;6.614;2022-11-13T02:38:03;17.65;;;14.30;;
52942;SDS011;38809;53.300;6.614;2022-11-13T02:40:30;21.83;;;16.38;;
52942;SDS011;38809;53.300;6.614;2022-11-13T02:42:57;21.02;;;16.35;;
52942;SDS011;38809;53.300;6.614;2022-11-13T02:45:23;21.88;;;15.77;;
52942;SDS011;38809;53.300;6.614;2022-11-13T02:47:48;20.37;;;14.90;;
52942;SDS011;38809;53.300;6.614;2022-11-13T02:50:15;18.13;;;14.60;;
52942;SDS011;38809;53.300;6.614;2022-11-13T02:52:41;22.27;;;16.80;;
52942;SDS011;38809;53.300;6.614;2022-11-13T02:55:06;17.13;;;15.17;;
52942;SDS011;38809;53.300;6.614;2022-11-13T02:57:32;19.63;;;15.85;;
52942;SDS011;38809;53.300;6.614;2022-11-13T02:59:58;18.70;;;15.57;;
52942;SDS011;38809;53.300;6.614;2022-11-13T03:02:24;19.47;;;15.57;;
52942;SDS011;38809;53.300;6.614;2022-11-13T03:04:49;18.13;;;15.30;;
52942;SDS011;38809;53.300;6.614;2022-11-13T03:07:15;19.13;;;15.63;;
52942;SDS011;38809;53.300;6.614;2022-11-13T03:09:41;17.97;;;14.63;;
52942;SDS011;38809;53.300;6.614;2022-11-13T03:12:07;17.50;;;14.27;;
52942;SDS011;38809;53.300;6.614;2022-11-13T03:16:59;22.10;;;15.82;;
52942;SDS011;38809;53.300;6.614;2022-11-13T03:19:25;19.35;;;14.18;;
52942;SDS011;38809;53.300;6.614;2022-11-13T03:21:50;19.23;;;15.33;;
52942;SDS011;38809;53.300;6.614;2022-11-13T03:24:16;22.27;;;15.88;;
52942;SDS011;38809;53.300;6.614;2022-11-13T03:26:42;22.37;;;17.33;;
52942;SDS011;38809;53.300;6.614;2022-11-13T03:29:08;18.43;;;15.87;;
52942;SDS011;38809;53.300;6.614;2022-11-13T03:31:33;20.80;;;15.47;;
52942;SDS011;38809;53.300;6.614;2022-11-13T03:33:59;20.53;;;16.77;;
52942;SDS011;38809;53.300;6.614;2022-11-13T03:36:25;22.40;;;16.50;;
52942;SDS011;38809;53.300;6.614;2022-11-13T03:38:50;19.23;;;15.60;;
52942;SDS011;38809;53.300;6.614;2022-11-13T03:41:16;16.80;;;13.50;;
52942;SDS011;38809;53.300;6.614;2022-11-13T03:43:42;18.27;;;14.17;;
52942;SDS011;38809;53.300;6.614;2022-11-13T03:46:08;16.53;;;13.37;;
52942;SDS011;38809;53.300;6.614;2022-11-13T03:48:33;18.13;;;13.70;;
52942;SDS011;38809;53.300;6.614;2022-11-13T03:50:59;17.97;;;14.90;;
52942;SDS011;38809;53.300;6.614;2022-11-13T03:53:25;18.45;;;14.90;;
52942;SDS011;38809;53.300;6.614;2022-11-13T03:55:51;19.63;;;15.18;;
52942;SDS011;38809;53.300;6.614;2022-11-13T03:58:17;18.87;;;15.37;;
52942;SDS011;38809;53.300;6.614;2022-11-13T04:00:43;19.10;;;14.82;;
52942;SDS011;38809;53.300;6.614;2022-11-13T04:03:10;20.38;;;13.82;;
52942;SDS011;38809;53.300;6.614;2022-11-13T04:05:35;17.90;;;14.82;;
52942;SDS011;38809;53.300;6.614;2022-11-13T04:08:02;20.05;;;14.45;;
52942;SDS011;38809;53.300;6.614;2022-11-13T04:10:28;17.35;;;13.88;;
52942;SDS011;38809;53.300;6.614;2022-11-13T04:12:53;19.85;;;16.58;;
52942;SDS011;38809;53.300;6.614;2022-11-13T04:15:19;18.40;;;13.70;;
52942;SDS011;38809;53.300;6.614;2022-11-13T04:17:45;17.38;;;15.05;;
52942;SDS011;38809;53.300;6.614;2022-11-13T04:20:12;19.15;;;14.57;;
52942;SDS011;38809;53.300;6.614;2022-11-13T04:22:37;20.03;;;14.83;;
52942;SDS011;38809;53.300;6.614;2022-11-13T04:25:03;19.00;;;15.83;;
52942;SDS011;38809;53.300;6.614;2022-11-13T04:29:55;16.00;;;12.68;;
52942;SDS011;38809;53.300;6.614;2022-11-13T04:32:21;15.83;;;12.87;;
52942;SDS011;38809;53.300;6.614;2022-11-13T04:34:46;17.63;;;14.33;;
52942;SDS011;38809;53.300;6.614;2022-11-13T04:37:12;16.03;;;13.73;;
52942;SDS011;38809;53.300;6.614;2022-11-13T04:39:38;18.13;;;14.03;;
52942;SDS011;38809;53.300;6.614;2022-11-13T04:42:03;18.20;;;15.33;;
52942;SDS011;38809;53.300;6.614;2022-11-13T04:44:48;17.55;;;12.82;;
52942;SDS011;38809;53.300;6.614;2022-11-13T04:47:14;14.03;;;12.43;;
52942;SDS011;38809;53.300;6.614;2022-11-13T04:49:39;14.73;;;11.90;;
52942;SDS011;38809;53.300;6.614;2022-11-13T04:52:05;15.00;;;11.80;;
52942;SDS011;38809;53.300;6.614;2022-11-13T04:54:31;17.23;;;13.00;;
52942;SDS011;38809;53.300;6.614;2022-11-13T04:56:56;14.17;;;12.00;;
52942;SDS011;38809;53.300;6.614;2022-11-13T04:59:22;16.87;;;13.10;;
52942;SDS011;38809;53.300;6.614;2022-11-13T05:01:48;16.88;;;12.98;;
52942;SDS011;38809;53.300;6.614;2022-11-13T05:04:14;17.13;;;13.10;;
52942;SDS011;38809;53.300;6.614;2022-11-13T05:06:40;14.65;;;12.30;;
52942;SDS011;38809;53.300;6.614;2022-11-13T05:09:07;14.57;;;12.45;;
52942;SDS011;38809;53.300;6.614;2022-11-13T05:11:33;14.18;;;11.93;;
52942;SDS011;38809;53.300;6.614;2022-11-13T05:13:58;14.82;;;12.48;;
52942;SDS011;38809;53.300;6.614;2022-11-13T05:16:24;14.20;;;12.20;;
52942;SDS011;38809;53.300;6.614;2022-11-13T05:18:50;15.57;;;12.23;;
52942;SDS011;38809;53.300;6.614;2022-11-13T05:21:15;15.83;;;11.73;;
52942;SDS011;38809;53.300;6.614;2022-11-13T05:23:41;18.13;;;12.60;;
52942;SDS011;38809;53.300;6.614;2022-11-13T05:26:09;17.63;;;13.27;;
52942;SDS011;38809;53.300;6.614;2022-11-13T05:28:37;15.00;;;11.20;;
52942;SDS011;38809;53.300;6.614;2022-11-13T05:31:07;15.30;;;11.88;;
52942;SDS011;38809;53.300;6.614;2022-11-13T05:33:38;15.50;;;12.00;;
52942;SDS011;38809;53.300;6.614;2022-11-13T05:36:05;15.63;;;12.02;;
52942;SDS011;38809;53.300;6.614;2022-11-13T05:38:33;16.45;;;12.25;;
52942;SDS011;38809;53.300;6.614;2022-11-13T05:41:09;13.48;;;11.13;;
52942;SDS011;38809;53.300;6.614;2022-11-13T05:43:37;15.05;;;11.95;;
52942;SDS011;38809;53.300;6.614;2022-11-13T05:48:44;17.25;;;12.60;;
52942;SDS011;38809;53.300;6.614;2022-11-13T05:53:49;13.25;;;9.85;;
52942;SDS011;38809;53.300;6.614;2022-11-13T05:56:25;12.77;;;10.07;;
52942;SDS011;38809;53.300;6.614;2022-11-13T05:58:53;13.75;;;10.35;;
52942;SDS011;38809;53.300;6.614;2022-11-13T06:01:24;14.30;;;10.90;;
52942;SDS011;38809;53.300;6.614;2022-11-13T06:03:55;17.17;;;11.60;;
52942;SDS011;38809;53.300;6.614;2022-11-13T06:06:23;16.40;;;12.82;;
52942;SDS011;38809;53.300;6.614;2022-11-13T06:08:50;15.75;;;12.30;;
52942;SDS011;38809;53.300;6.614;2022-11-13T06:11:17;14.88;;;11.68;;
52942;SDS011;38809;53.300;6.614;2022-11-13T06:13:45;15.70;;;11.77;;
52942;SDS011;38809;53.300;6.614;2022-11-13T06:16:12;15.32;;;11.40;;
52942;SDS011;38809;53.300;6.614;2022-11-13T06:18:40;16.38;;;11.35;;
52942;SDS011;38809;53.300;6.614;2022-11-13T06:21:07;14.20;;;10.88;;
52942;SDS011;38809;53.300;6.614;2022-11-13T06:23:37;16.27;;;11.57;;
52942;SDS011;38809;53.300;6.614;2022-11-13T06:26:26;14.52;;;11.27;;
52942;SDS011;38809;53.300;6.614;2022-11-13T06:28:51;13.98;;;10.70;;
52942;SDS011;38809;53.300;6.614;2022-11-13T06:31:21;14.50;;;11.23;;
52942;SDS011;38809;53.300;6.614;2022-11-13T06:33:48;13.25;;;9.88;;
52942;SDS011;38809;53.300;6.614;2022-11-13T06:36:15;14.90;;;9.82;;
52942;SDS011;38809;53.300;6.614;2022-11-13T06:38:45;12.38;;;9.38;;
52942;SDS011;38809;53.300;6.614;2022-11-13T06:41:15;14.18;;;10.52;;
52942;SDS011;38809;53.300;6.614;2022-11-13T06:43:42;12.05;;;9.48;;
52942;SDS011;38809;53.300;6.614;2022-11-13T06:46:22;13.90;;;10.07;;
52942;SDS011;38809;53.300;6.614;2022-11-13T06:48:49;11.77;;;9.13;;
52942;SDS011;38809;53.300;6.614;2022-11-13T06:51:16;12.75;;;8.95;;
52942;SDS011;38809;53.300;6.614;2022-11-13T06:53:44;13.88;;;9.35;;
52942;SDS011;38809;53.300;6.614;2022-11-13T06:56:09;14.60;;;9.18;;
52942;SDS011;38809;53.300;6.614;2022-11-13T06:58:35;11.95;;;9.10;;
52942;SDS011;38809;53.300;6.614;2022-11-13T07:01:08;12.88;;;9.40;;
52942;SDS011;38809;53.300;6.614;2022-11-13T07:03:36;13.15;;;9.13;;
52942;SDS011;38809;53.300;6.614;2022-11-13T07:06:06;13.95;;;9.27;;
52942;SDS011;38809;53.300;6.614;2022-11-13T07:08:34;13.95;;;9.43;;
52942;SDS011;38809;53.300;6.614;2022-11-13T07:11:00;12.65;;;10.02;;
52942;SDS011;38809;53.300;6.614;2022-11-13T07:13:26;14.50;;;10.02;;
52942;SDS011;38809;53.300;6.614;2022-11-13T07:15:52;13.02;;;9.93;;
52942;SDS011;38809;53.300;6.614;2022-11-13T07:18:18;13.15;;;10.35;;
52942;SDS011;38809;53.300;6.614;2022-11-13T07:20:46;11.43;;;8.80;;
52942;SDS011;38809;53.300;6.614;2022-11-13T07:23:12;12.32;;;9.20;;
52942;SDS011;38809;53.300;6.614;2022-11-13T07:25:38;9.67;;;8.17;;
52942;SDS011;38809;53.300;6.614;2022-11-13T07:28:04;9.90;;;7.60;;
52942;SDS011;38809;53.300;6.614;2022-11-13T07:30:29;10.98;;;7.50;;
52942;SDS011;38809;53.300;6.614;2022-11-13T07:32:55;10.83;;;7.83;;
52942;SDS011;38809;53.300;6.614;2022-11-13T07:35:25;11.70;;;8.65;;
52942;SDS011;38809;53.300;6.614;2022-11-13T07:37:53;14.70;;;9.90;;
52942;SDS011;38809;53.300;6.614;2022-11-13T07:40:20;17.70;;;11.45;;
52942;SDS011;38809;53.300;6.614;2022-11-13T07:42:45;16.23;;;11.23;;
52942;SDS011;38809;53.300;6.614;2022-11-13T07:45:11;17.10;;;11.60;;
52942;SDS011;38809;53.300;6.614;2022-11-13T07:47:37;18.50;;;11.73;;
52942;SDS011;38809;53.300;6.614;2022-11-13T07:50:03;18.20;;;11.73;;
52942;SDS011;38809;53.300;6.614;2022-11-13T07:52:29;17.92;;;12.32;;
52942;SDS011;38809;53.300;6.614;2022-11-13T07:54:55;19.20;;;13.20;;
52942;SDS011;38809;53.300;6.614;2022-11-13T07:57:20;17.57;;;12.43;;
52942;SDS011;38809;53.300;6.614;2022-11-13T07:59:47;17.70;;;13.77;;
52942;SDS011;38809;53.300;6.614;2022-11-13T08:02:13;20.15;;;12.98;;
52942;SDS011;38809;53.300;6.614;2022-11-13T08:04:40;18.58;;;14.07;;
52942;SDS011;38809;53.300;6.614;2022-11-13T08:07:06;20.13;;;13.52;;
52942;SDS011;38809;53.300;6.614;2022-11-13T08:09:32;18.33;;;13.40;;
52942;SDS011;38809;53.300;6.614;2022-11-13T08:11:57;20.00;;;14.10;;
52942;SDS011;38809;53.300;6.614;2022-11-13T08:14:23;19.90;;;13.90;;
52942;SDS011;38809;53.300;6.614;2022-11-13T08:16:49;17.43;;;13.13;;
52942;SDS011;38809;53.300;6.614;2022-11-13T08:19:14;18.30;;;13.23;;
52942;SDS011;38809;53.300;6.614;2022-11-13T08:21:40;19.70;;;13.93;;
52942;SDS011;38809;53.300;6.614;2022-11-13T08:24:06;19.90;;;13.97;;
52942;SDS011;38809;53.300;6.614;2022-11-13T08:26:35;17.65;;;13.85;;
52942;SDS011;38809;53.300;6.614;2022-11-13T08:29:02;19.20;;;14.35;;
52942;SDS011;38809;53.300;6.614;2022-11-13T08:31:28;17.95;;;14.43;;
52942;SDS011;38809;53.300;6.614;2022-11-13T08:33:53;18.37;;;13.77;;
52942;SDS011;38809;53.300;6.614;2022-11-13T08:36:19;21.60;;;14.67;;
52942;SDS011;38809;53.300;6.614;2022-11-13T08:38:46;18.30;;;14.65;;
52942;SDS011;38809;53.300;6.614;2022-11-13T08:41:12;20.25;;;14.73;;
52942;SDS011;38809;53.300;6.614;2022-11-13T08:43:38;20.95;;;14.63;;
52942;SDS011;38809;53.300;6.614;2022-11-13T08:46:04;17.73;;;14.55;;
52942;SDS011;38809;53.300;6.614;2022-11-13T08:48:30;19.55;;;14.45;;
52942;SDS011;38809;53.300;6.614;2022-11-13T08:50:56;18.98;;;14.65;;
52942;SDS011;38809;53.300;6.614;2022-11-13T08:53:22;20.75;;;15.80;;
52942;SDS011;38809;53.300;6.614;2022-11-13T08:55:48;20.15;;;15.60;;
52942;SDS011;38809;53.300;6.614;2022-11-13T08:58:14;18.47;;;14.73;;
52942;SDS011;38809;53.300;6.614;2022-11-13T09:00:40;21.15;;;15.23;;
52942;SDS011;38809;53.300;6.614;2022-11-13T09:03:06;22.57;;;15.93;;
52942;SDS011;38809;53.300;6.614;2022-11-13T09:05:34;21.83;;;16.38;;
52942;SDS011;38809;53.300;6.614;2022-11-13T09:08:01;21.45;;;16.55;;
52942;SDS011;38809;53.300;6.614;2022-11-13T09:10:27;21.30;;;15.82;;
52942;SDS011;38809;53.300;6.614;2022-11-13T09:12:56;24.02;;;17.38;;
52942;SDS011;38809;53.300;6.614;2022-11-13T09:15:27;24.48;;;16.75;;
52942;SDS011;38809;53.300;6.614;2022-11-13T09:17:57;21.25;;;16.48;;
52942;SDS011;38809;53.300;6.614;2022-11-13T09:20:24;20.88;;;15.68;;
52942;SDS011;38809;53.300;6.614;2022-11-13T09:25:27;18.58;;;15.23;;
52942;SDS011;38809;53.300;6.614;2022-11-13T09:27:55;19.30;;;15.43;;
52942;SDS011;38809;53.300;6.614;2022-11-13T09:30:23;17.30;;;13.88;;
52942;SDS011;38809;53.300;6.614;2022-11-13T09:32:52;16.23;;;13.32;;
52942;SDS011;38809;53.300;6.614;2022-11-13T09:35:19;17.35;;;13.20;;
52942;SDS011;38809;53.300;6.614;2022-11-13T09:38:05;16.08;;;12.55;;
52942;SDS011;38809;53.300;6.614;2022-11-13T09:40:54;18.08;;;12.52;;
52942;SDS011;38809;53.300;6.614;2022-11-13T09:45:48;16.80;;;12.30;;
52942;SDS011;38809;53.300;6.614;2022-11-13T09:48:36;15.70;;;11.68;;
52942;SDS011;38809;53.300;6.614;2022-11-13T09:51:07;14.55;;;11.85;;
52942;SDS011;38809;53.300;6.614;2022-11-13T09:53:39;14.18;;;11.07;;
52942;SDS011;38809;53.300;6.614;2022-11-13T09:56:08;14.07;;;10.82;;
52942;SDS011;38809;53.300;6.614;2022-11-13T10:07:41;15.30;;;11.88;;
52942;SDS011;38809;53.300;6.614;2022-11-13T10:13:04;13.70;;;11.18;;
52942;SDS011;38809;53.300;6.614;2022-11-13T10:15:33;15.77;;;11.98;;
52942;SDS011;38809;53.300;6.614;2022-11-13T10:18:06;13.23;;;11.15;;
52942;SDS011;38809;53.300;6.614;2022-11-13T10:20:39;13.35;;;10.23;;
52942;SDS011;38809;53.300;6.614;2022-11-13T10:23:15;12.70;;;10.55;;
52942;SDS011;38809;53.300;6.614;2022-11-13T10:25:45;12.80;;;10.20;;
52942;SDS011;38809;53.300;6.614;2022-11-13T10:28:21;12.27;;;10.43;;
52942;SDS011;38809;53.300;6.614;2022-11-13T10:30:48;12.68;;;9.32;;
52942;SDS011;38809;53.300;6.614;2022-11-13T10:33:18;14.35;;;10.25;;
52942;SDS011;38809;53.300;6.614;2022-11-13T10:35:49;12.65;;;9.95;;
52942;SDS011;38809;53.300;6.614;2022-11-13T10:41:11;12.18;;;9.25;;
52942;SDS011;38809;53.300;6.614;2022-11-13T10:43:54;13.35;;;9.70;;
52942;SDS011;38809;53.300;6.614;2022-11-13T10:46:21;12.25;;;8.82;;
52942;SDS011;38809;53.300;6.614;2022-11-13T10:48:49;13.55;;;8.93;;
52942;SDS011;38809;53.300;6.614;2022-11-13T10:53:49;12.43;;;9.43;;
52942;SDS011;38809;53.300;6.614;2022-11-13T10:58:57;11.00;;;8.82;;
52942;SDS011;38809;53.300;6.614;2022-11-13T11:01:35;10.55;;;8.25;;
52942;SDS011;38809;53.300;6.614;2022-11-13T11:04:05;12.10;;;8.63;;
52942;SDS011;38809;53.300;6.614;2022-11-13T11:06:32;10.18;;;7.72;;
52942;SDS011;38809;53.300;6.614;2022-11-13T11:11:37;9.93;;;7.85;;
52942;SDS011;38809;53.300;6.614;2022-11-13T11:14:25;10.60;;;8.50;;
52942;SDS011;38809;53.300;6.614;2022-11-13T11:16:55;9.75;;;8.00;;
52942;SDS011;38809;53.300;6.614;2022-11-13T11:19:24;11.25;;;8.85;;
52942;SDS011;38809;53.300;6.614;2022-11-13T11:21:56;11.70;;;9.00;;
52942;SDS011;38809;53.300;6.614;2022-11-13T11:24:33;11.80;;;9.68;;
52942;SDS011;38809;53.300;6.614;2022-11-13T11:27:03;13.38;;;9.77;;
52942;SDS011;38809;53.300;6.614;2022-11-13T11:29:37;13.50;;;8.85;;
52942;SDS011;38809;53.300;6.614;2022-11-13T11:32:33;11.95;;;8.75;;
52942;SDS011;38809;53.300;6.614;2022-11-13T11:38:09;13.55;;;9.30;;
52942;SDS011;38809;53.300;6.614;2022-11-13T11:40:41;10.23;;;8.48;;
52942;SDS011;38809;53.300;6.614;2022-11-13T11:43:22;13.10;;;9.35;;
52942;SDS011;38809;53.300;6.614;2022-11-13T11:45:49;11.60;;;8.18;;
52942;SDS011;38809;53.300;6.614;2022-11-13T11:48:15;10.43;;;8.27;;
52942;SDS011;38809;53.300;6.614;2022-11-13T11:56:04;12.75;;;9.05;;
52942;SDS011;38809;53.300;6.614;2022-11-13T11:58:38;11.77;;;9.45;;
52942;SDS011;38809;53.300;6.614;2022-11-13T12:09:35;13.57;;;8.93;;
52942;SDS011;38809;53.300;6.614;2022-11-13T12:12:29;11.55;;;8.35;;
52942;SDS011;38809;53.300;6.614;2022-11-13T12:15:09;10.45;;;8.23;;
52942;SDS011;38809;53.300;6.614;2022-11-13T12:18:02;10.90;;;8.20;;
52942;SDS011;38809;53.300;6.614;2022-11-13T12:20:43;9.80;;;8.13;;
52942;SDS011;38809;53.300;6.614;2022-11-13T12:31:38;10.45;;;8.10;;
52942;SDS011;38809;53.300;6.614;2022-11-13T12:36:52;9.75;;;7.53;;
52942;SDS011;38809;53.300;6.614;2022-11-13T12:42:12;12.68;;;7.65;;
52942;SDS011;38809;53.300;6.614;2022-11-13T12:47:36;10.32;;;7.63;;
52942;SDS011;38809;53.300;6.614;2022-11-13T12:50:04;9.95;;;7.28;;
52942;SDS011;38809;53.300;6.614;2022-11-13T12:52:58;11.45;;;8.35;;
52942;SDS011;38809;53.300;6.614;2022-11-13T12:55:32;10.57;;;7.72;;
52942;SDS011;38809;53.300;6.614;2022-11-13T13:06:58;9.20;;;6.80;;
52942;SDS011;38809;53.300;6.614;2022-11-13T13:09:47;8.43;;;6.68;;
52942;SDS011;38809;53.300;6.614;2022-11-13T13:18:07;10.52;;;7.20;;
52942;SDS011;38809;53.300;6.614;2022-11-13T13:20:39;11.75;;;7.78;;
52942;SDS011;38809;53.300;6.614;2022-11-13T13:23:10;10.57;;;7.88;;
52942;SDS011;38809;53.300;6.614;2022-11-13T13:25:37;10.50;;;8.02;;
52942;SDS011;38809;53.300;6.614;2022-11-13T13:34:03;10.68;;;8.00;;
52942;SDS011;38809;53.300;6.614;2022-11-13T13:41:54;11.07;;;7.70;;
52942;SDS011;38809;53.300;6.614;2022-11-13T13:44:37;11.57;;;8.25;;
52942;SDS011;38809;53.300;6.614;2022-11-13T13:47:09;13.23;;;8.25;;
52942;SDS011;38809;53.300;6.614;2022-11-13T13:49:41;11.13;;;8.55;;
52942;SDS011;38809;53.300;6.614;2022-11-13T13:52:10;10.63;;;8.57;;
52942;SDS011;38809;53.300;6.614;2022-11-13T13:54:39;10.70;;;8.30;;
52942;SDS011;38809;53.300;6.614;2022-11-13T13:57:08;10.23;;;7.53;;
52942;SDS011;38809;53.300;6.614;2022-11-13T13:59:40;11.10;;;8.18;;
52942;SDS011;38809;53.300;6.614;2022-11-13T14:02:43;10.70;;;8.43;;
52942;SDS011;38809;53.300;6.614;2022-11-13T14:05:28;13.10;;;8.82;;
52942;SDS011;38809;53.300;6.614;2022-11-13T14:07:57;11.95;;;9.15;;
52942;SDS011;38809;53.300;6.614;2022-11-13T14:12:50;11.00;;;8.90;;
52942;SDS011;38809;53.300;6.614;2022-11-13T14:15:32;13.75;;;9.35;;
52942;SDS011;38809;53.300;6.614;2022-11-13T14:18:10;10.85;;;8.50;;
52942;SDS011;38809;53.300;6.614;2022-11-13T14:20:44;10.80;;;8.40;;
52942;SDS011;38809;53.300;6.614;2022-11-13T14:23:18;10.45;;;7.75;;
52942;SDS011;38809;53.300;6.614;2022-11-13T14:25:55;10.77;;;7.43;;
52942;SDS011;38809;53.300;6.614;2022-11-13T14:28:28;10.18;;;7.53;;
52942;SDS011;38809;53.300;6.614;2022-11-13T14:31:01;9.85;;;7.70;;
52942;SDS011;38809;53.300;6.614;2022-11-13T14:33:31;10.80;;;8.10;;
52942;SDS011;38809;53.300;6.614;2022-11-13T14:36:02;10.60;;;7.72;;
52942;SDS011;38809;53.300;6.614;2022-11-13T14:38:30;10.73;;;8.00;;
52942;SDS011;38809;53.300;6.614;2022-11-13T14:40:58;11.90;;;8.82;;
52942;SDS011;38809;53.300;6.614;2022-11-13T14:43:26;10.27;;;7.50;;
52942;SDS011;38809;53.300;6.614;2022-11-13T14:46:01;12.73;;;8.85;;
52942;SDS011;38809;53.300;6.614;2022-11-13T14:48:30;10.85;;;8.63;;
52942;SDS011;38809;53.300;6.614;2022-11-13T14:50:59;10.77;;;7.65;;
52942;SDS011;38809;53.300;6.614;2022-11-13T14:53:36;13.43;;;8.82;;
52942;SDS011;38809;53.300;6.614;2022-11-13T14:56:04;11.27;;;7.95;;
52942;SDS011;38809;53.300;6.614;2022-11-13T14:58:41;10.68;;;8.43;;
52942;SDS011;38809;53.300;6.614;2022-11-13T15:01:14;11.52;;;8.60;;
52942;SDS011;38809;53.300;6.614;2022-11-13T15:03:45;13.20;;;9.35;;
52942;SDS011;38809;53.300;6.614;2022-11-13T15:06:13;11.32;;;9.15;;
52942;SDS011;38809;53.300;6.614;2022-11-13T15:08:44;12.73;;;8.95;;
52942;SDS011;38809;53.300;6.614;2022-11-13T15:11:17;12.52;;;9.50;;
52942;SDS011;38809;53.300;6.614;2022-11-13T15:13:44;11.60;;;8.13;;
52942;SDS011;38809;53.300;6.614;2022-11-13T15:16:15;10.95;;;8.52;;
52942;SDS011;38809;53.300;6.614;2022-11-13T15:18:51;11.52;;;8.70;;
52942;SDS011;38809;53.300;6.614;2022-11-13T15:21:19;12.35;;;9.27;;
52942;SDS011;38809;53.300;6.614;2022-11-13T15:23:44;13.23;;;8.88;;
52942;SDS011;38809;53.300;6.614;2022-11-13T15:26:10;11.25;;;8.90;;
52942;SDS011;38809;53.300;6.614;2022-11-13T15:28:36;11.43;;;8.70;;
52942;SDS011;38809;53.300;6.614;2022-11-13T15:31:05;10.85;;;9.20;;
52942;SDS011;38809;53.300;6.614;2022-11-13T15:33:40;13.35;;;8.63;;
52942;SDS011;38809;53.300;6.614;2022-11-13T15:36:07;11.37;;;8.83;;
52942;SDS011;38809;53.300;6.614;2022-11-13T15:38:33;11.93;;;8.65;;
52942;SDS011;38809;53.300;6.614;2022-11-13T15:40:59;11.13;;;8.97;;
52942;SDS011;38809;53.300;6.614;2022-11-13T15:43:24;13.50;;;9.18;;
52942;SDS011;38809;53.300;6.614;2022-11-13T15:45:50;12.47;;;9.57;;
52942;SDS011;38809;53.300;6.614;2022-11-13T15:48:16;13.50;;;9.33;;
52942;SDS011;38809;53.300;6.614;2022-11-13T15:50:41;12.00;;;9.40;;
52942;SDS011;38809;53.300;6.614;2022-11-13T15:53:08;13.02;;;9.50;;
52942;SDS011;38809;53.300;6.614;2022-11-13T15:55:36;12.13;;;8.80;;
52942;SDS011;38809;53.300;6.614;2022-11-13T15:58:04;13.98;;;9.68;;
52942;SDS011;38809;53.300;6.614;2022-11-13T16:00:35;10.15;;;8.38;;
52942;SDS011;38809;53.300;6.614;2022-11-13T16:03:06;12.77;;;9.45;;
52942;SDS011;38809;53.300;6.614;2022-11-13T16:05:35;14.90;;;9.82;;
52942;SDS011;38809;53.300;6.614;2022-11-13T16:08:06;13.23;;;9.88;;
52942;SDS011;38809;53.300;6.614;2022-11-13T16:10:36;12.60;;;9.45;;
52942;SDS011;38809;53.300;6.614;2022-11-13T16:13:02;11.10;;;9.23;;
52942;SDS011;38809;53.300;6.614;2022-11-13T16:15:27;11.97;;;9.10;;
52942;SDS011;38809;53.300;6.614;2022-11-13T16:17:54;13.47;;;9.40;;
52942;SDS011;38809;53.300;6.614;2022-11-13T16:20:21;12.32;;;9.75;;
52942;SDS011;38809;53.300;6.614;2022-11-13T16:22:47;11.52;;;8.68;;
52942;SDS011;38809;53.300;6.614;2022-11-13T16:25:18;11.25;;;9.07;;